createdAt,value
2023-01-13T00:00:39.417Z,9.47
2023-01-13T00:04:42.323Z,9.45
2023-01-13T00:08:45.466Z,9.37
2023-01-13T00:12:48.521Z,9.35
2023-01-13T00:16:52.820Z,9.34
2023-01-13T00:21:02.850Z,9.30
2023-01-13T00:25:06.846Z,9.26
2023-01-13T00:29:09.833Z,9.27
2023-01-13T00:33:14.430Z,9.42
2023-01-13T00:37:17.607Z,9.55
2023-01-13T00:41:22.914Z,9.73
2023-01-13T00:45:26.059Z,9.88
2023-01-13T00:49:30.572Z,10.03
2023-01-13T00:53:36.322Z,10.12
2023-01-13T00:57:40.272Z,10.19
2023-01-13T01:01:43.519Z,10.27
2023-01-13T01:05:48.565Z,10.33
2023-01-13T01:09:51.455Z,10.36
2023-01-13T01:13:56.128Z,10.38
2023-01-13T01:17:59.016Z,10.55
2023-01-13T01:22:03.373Z,10.65
2023-01-13T01:26:08.622Z,10.66
2023-01-13T01:30:12.967Z,10.71
2023-01-13T01:34:16.070Z,10.79
2023-01-13T01:38:21.469Z,10.86
2023-01-13T01:42:41.981Z,10.87
2023-01-13T01:46:47.357Z,10.91
2023-01-13T01:50:52.741Z,10.89
2023-01-13T01:55:01.981Z,10.85
2023-01-13T01:59:04.919Z,10.75
2023-01-13T02:03:10.320Z,10.68
2023-01-13T02:07:13.359Z,10.64
2023-01-13T02:11:54.161Z,10.61
2023-01-13T02:16:08.815Z,10.64
2023-01-13T02:20:39.277Z,10.65
2023-01-13T02:25:13.330Z,10.61
2023-01-13T02:29:51.951Z,10.56
2023-01-13T02:34:05.701Z,10.54
2023-01-13T02:38:11.749Z,10.51
2023-01-13T02:42:36.268Z,10.50
2023-01-13T02:46:58.563Z,10.52
2023-01-13T02:51:07.349Z,10.55
2023-01-13T02:55:15.365Z,10.59
2023-01-13T02:59:21.418Z,10.58
2023-01-13T03:03:26.311Z,10.60
2023-01-13T03:08:01.825Z,10.61
2023-01-13T03:12:16.961Z,10.63
2023-01-13T03:16:31.296Z,10.71
2023-01-13T03:20:43.965Z,10.77
2023-01-13T03:24:52.033Z,10.78
2023-01-13T03:29:02.987Z,10.81
2023-01-13T03:33:11.728Z,10.81
2023-01-13T03:37:20.640Z,10.80
2023-01-13T03:41:28.317Z,10.76
2023-01-13T03:45:34.941Z,10.76
2023-01-13T03:49:42.398Z,10.71
2023-01-13T03:53:49.836Z,10.61
2023-01-13T03:57:59.874Z,10.70
2023-01-13T04:02:08.395Z,10.73
2023-01-13T04:06:17.393Z,10.79
2023-01-13T04:10:26.833Z,10.77
2023-01-13T04:14:30.890Z,10.68
2023-01-13T04:18:34.089Z,10.55
2023-01-13T04:22:37.561Z,10.49
2023-01-13T04:26:42.197Z,10.45
2023-01-13T04:30:46.406Z,10.41
2023-01-13T04:34:49.458Z,10.44
2023-01-13T04:38:52.707Z,10.39
2023-01-13T04:42:57.651Z,10.38
2023-01-13T04:47:01.177Z,10.28
2023-01-13T04:51:04.172Z,10.26
2023-01-13T04:55:08.731Z,10.24
2023-01-13T04:59:14.562Z,10.22
2023-01-13T05:03:17.924Z,10.18
2023-01-13T05:07:23.326Z,10.15
2023-01-13T05:11:43.887Z,10.03
2023-01-13T05:16:17.549Z,10.10
2023-01-13T05:20:20.948Z,10.05
2023-01-13T05:24:41.623Z,10.04
2023-01-13T05:28:44.532Z,10.01
2023-01-13T05:32:49.522Z,10.02
2023-01-13T05:36:52.723Z,10.00
2023-01-13T05:41:13.324Z,10.06
2023-01-13T05:45:16.583Z,10.09
2023-01-13T05:49:21.313Z,10.11
2023-01-13T05:53:25.800Z,10.12
2023-01-13T05:57:29.026Z,10.09
2023-01-13T06:01:32.144Z,10.07
2023-01-13T06:05:36.783Z,10.06
2023-01-13T06:09:39.872Z,10.01
2023-01-13T06:13:43.175Z,9.95
2023-01-13T06:17:46.535Z,9.91
2023-01-13T06:21:51.154Z,9.86
2023-01-13T06:26:02.307Z,9.80
2023-01-13T06:30:06.182Z,9.73
2023-01-13T06:34:13.624Z,9.65
2023-01-13T06:38:21.471Z,9.58
2023-01-13T06:42:41.714Z,9.48
2023-01-13T06:46:44.749Z,9.39
2023-01-13T06:50:47.948Z,9.35
2023-01-13T06:54:52.455Z,9.31
2023-01-13T06:58:55.404Z,9.26
2023-01-13T07:03:08.091Z,9.24
2023-01-13T07:07:12.693Z,9.18
2023-01-13T07:11:17.324Z,9.17
2023-01-13T07:15:20.670Z,9.15
2023-01-13T07:19:25.052Z,9.14
2023-01-13T07:23:29.669Z,9.13
2023-01-13T07:27:34.229Z,9.13
2023-01-13T07:31:37.545Z,9.11
2023-01-13T07:35:40.548Z,9.13
2023-01-13T07:39:45.462Z,9.14
2023-01-13T07:43:49.951Z,9.18
2023-01-13T07:47:54.561Z,9.23
2023-01-13T07:51:57.616Z,9.30
2023-01-13T07:56:02.365Z,9.35
2023-01-13T08:00:08.668Z,9.41
2023-01-13T08:04:11.722Z,9.45
2023-01-13T08:08:14.676Z,9.52
2023-01-13T08:12:35.141Z,9.58
2023-01-13T08:16:40.105Z,9.66
2023-01-13T08:20:43.345Z,9.75
2023-01-13T08:24:46.573Z,9.84
2023-01-13T08:28:49.874Z,9.90
2023-01-13T08:32:54.668Z,9.97
2023-01-13T08:36:57.747Z,9.99
2023-01-13T08:41:00.856Z,10.04
2023-01-13T08:45:04.097Z,10.08
2023-01-13T08:49:08.695Z,10.14
2023-01-13T08:53:11.936Z,10.18
2023-01-13T08:57:16.237Z,10.22
2023-01-13T09:01:23.501Z,10.28
2023-01-13T09:05:28.040Z,10.37
2023-01-13T09:09:31.210Z,10.47
2023-01-13T09:13:34.078Z,10.60
2023-01-13T09:17:37.044Z,10.75
2023-01-13T09:21:41.747Z,10.92
2023-01-13T09:25:44.935Z,11.08
2023-01-13T09:29:48.363Z,11.22
2023-01-13T09:34:09.102Z,11.33
2023-01-13T09:38:13.458Z,11.46
2023-01-13T09:42:40.860Z,11.58
2023-01-13T09:46:48.875Z,11.72
2023-01-13T09:51:02.558Z,11.80
2023-01-13T09:55:14.560Z,11.91
2023-01-13T09:59:19.770Z,11.96
2023-01-13T10:03:26.446Z,12.06
2023-01-13T10:07:33.429Z,12.13
2023-01-13T10:12:08.259Z,12.25
2023-01-13T10:16:27.771Z,12.45
2023-01-13T10:20:36.412Z,12.60
2023-01-13T10:25:04.455Z,12.79
2023-01-13T10:29:21.717Z,13.01
2023-01-13T10:33:28.555Z,13.20
2023-01-13T10:37:32.141Z,13.35
2023-01-13T10:41:36.384Z,13.49
2023-01-13T10:45:40.985Z,13.62
2023-01-13T10:49:43.908Z,13.68
2023-01-13T10:53:52.203Z,13.64
2023-01-13T10:57:55.576Z,13.60
2023-01-13T11:02:13.177Z,13.56
2023-01-13T11:06:29.558Z,13.55
2023-01-13T11:10:34.449Z,13.48
2023-01-13T11:14:41.902Z,13.50
2023-01-13T11:19:02.652Z,13.58
2023-01-13T11:23:15.939Z,13.72
2023-01-13T11:27:23.416Z,13.81
2023-01-13T11:31:31.385Z,13.93
2023-01-13T11:35:41.729Z,14.05
2023-01-13T11:39:53.905Z,14.18
2023-01-13T11:44:06.044Z,14.30
2023-01-13T11:48:15.730Z,14.34
2023-01-13T11:52:24.708Z,14.30
2023-01-13T11:56:50.431Z,14.13
2023-01-13T12:01:04.147Z,13.90
2023-01-13T12:05:17.032Z,13.60
2023-01-13T12:09:28.396Z,13.34
2023-01-13T12:13:42.210Z,13.03
2023-01-13T12:17:59.202Z,12.73
2023-01-13T12:22:12.587Z,12.46
2023-01-13T12:26:20.234Z,12.18
2023-01-13T12:30:28.717Z,12.14
2023-01-13T12:34:48.683Z,12.12
2023-01-13T12:38:58.035Z,12.12
2023-01-13T12:43:48.744Z,12.26
2023-01-13T12:47:52.224Z,12.31
2023-01-13T12:52:07.941Z,12.37
2023-01-13T12:56:42.576Z,12.41
2023-01-13T13:01:01.982Z,12.40
2023-01-13T13:05:57.140Z,12.41
2023-01-13T13:10:06.078Z,12.41
2023-01-13T13:14:13.010Z,12.47
2023-01-13T13:18:28.605Z,12.51
2023-01-13T13:22:46.238Z,12.56
2023-01-13T13:26:49.799Z,12.59
2023-01-13T13:31:11.312Z,12.63
2023-01-13T13:35:30.011Z,12.71
2023-01-13T13:39:51.789Z,12.78
2023-01-13T13:44:12.546Z,12.86
2023-01-13T13:48:25.537Z,12.89
2023-01-13T13:52:38.075Z,12.90
2023-01-13T13:56:45.110Z,12.91
2023-01-13T14:00:50.517Z,12.89
2023-01-13T14:05:08.927Z,12.86
2023-01-13T14:09:19.049Z,12.78
2023-01-13T14:13:25.200Z,12.66
2023-01-13T14:17:30.124Z,12.59
2023-01-13T14:21:33.608Z,12.42
2023-01-13T14:25:40.787Z,12.28
2023-01-13T14:29:44.346Z,12.14
2023-01-13T14:33:48.927Z,12.03
2023-01-13T14:37:54.599Z,11.97
2023-01-13T14:41:58.863Z,11.87
2023-01-13T14:46:03.995Z,11.85
2023-01-13T14:50:18.729Z,11.90
2023-01-13T14:54:48.017Z,11.98
2023-01-13T14:58:52.584Z,12.03
2023-01-13T15:03:07.996Z,12.04
2023-01-13T15:07:24.625Z,12.04
2023-01-13T15:11:30.104Z,11.99
2023-01-13T15:15:36.658Z,11.95
2023-01-13T15:19:39.900Z,11.92
2023-01-13T15:23:43.642Z,11.86
2023-01-13T15:27:48.204Z,11.87
2023-01-13T15:31:52.650Z,11.88
2023-01-13T15:35:56.424Z,11.86
2023-01-13T15:39:59.353Z,11.87
2023-01-13T15:44:19.849Z,11.86
2023-01-13T15:48:26.765Z,11.89
2023-01-13T15:52:29.668Z,11.94
2023-01-13T15:56:36.652Z,12.05
2023-01-13T16:00:39.905Z,12.08
2023-01-13T16:04:44.863Z,12.11
2023-01-13T16:08:48.529Z,12.05
2023-01-13T16:12:51.700Z,12.13
2023-01-13T16:16:55.008Z,12.20
2023-01-13T16:20:59.305Z,12.26
2023-01-13T16:25:02.268Z,12.38
2023-01-13T16:29:05.981Z,12.46
2023-01-13T16:33:09.018Z,12.35
2023-01-13T16:37:20.974Z,12.14
2023-01-13T16:41:25.270Z,11.82
2023-01-13T16:45:29.376Z,11.54
2023-01-13T16:49:32.261Z,11.30
2023-01-13T16:53:36.807Z,11.11
2023-01-13T16:57:39.913Z,10.93
2023-01-13T17:01:45.145Z,10.78
2023-01-13T17:05:48.984Z,10.60
2023-01-13T17:09:53.711Z,10.45
2023-01-13T17:13:56.907Z,10.28
2023-01-13T17:17:59.911Z,10.16
2023-01-13T17:22:03.118Z,10.07
2023-01-13T17:26:08.477Z,9.98
2023-01-13T17:30:14.599Z,10.02
2023-01-13T17:34:17.802Z,10.03
2023-01-13T17:38:21.887Z,10.04
2023-01-13T17:42:28.955Z,10.05
2023-01-13T17:46:32.052Z,10.04
2023-01-13T17:50:35.240Z,10.03
2023-01-13T17:54:40.180Z,9.94
2023-01-13T17:58:45.561Z,9.91
2023-01-13T18:02:48.919Z,9.86
2023-01-13T18:06:51.891Z,9.79
2023-01-13T18:10:57.656Z,9.73
2023-01-13T18:15:02.153Z,9.75
2023-01-13T18:19:23.162Z,9.77
2023-01-13T18:23:43.571Z,9.73
2023-01-13T18:27:47.304Z,9.71
2023-01-13T18:31:52.559Z,9.67
2023-01-13T18:35:55.925Z,9.56
2023-01-13T18:39:58.837Z,9.51
2023-01-13T18:44:02.063Z,9.46
2023-01-13T18:48:09.240Z,9.44
2023-01-13T18:52:12.625Z,9.44
2023-01-13T18:56:16.173Z,9.48
2023-01-13T19:00:21.941Z,9.48
2023-01-13T19:04:27.142Z,9.53
2023-01-13T19:08:31.167Z,9.53
2023-01-13T19:12:34.409Z,9.52
2023-01-13T19:16:37.347Z,9.48
2023-01-13T19:20:41.881Z,9.42
2023-01-13T19:24:44.987Z,9.34
2023-01-13T19:28:48.818Z,9.33
2023-01-13T19:32:53.736Z,9.32
2023-01-13T19:36:58.224Z,9.30
2023-01-13T19:41:05.012Z,9.25
2023-01-13T19:45:26.787Z,9.24
2023-01-13T19:49:30.134Z,9.22
2023-01-13T19:53:34.553Z,9.19
2023-01-13T19:57:39.472Z,9.12
2023-01-13T20:01:42.961Z,9.02
2023-01-13T20:05:46.763Z,9.00
2023-01-13T20:09:51.352Z,8.98
2023-01-13T20:13:54.572Z,8.99
2023-01-13T20:17:58.877Z,9.00
2023-01-13T20:22:02.149Z,9.04
2023-01-13T20:26:08.795Z,9.06
2023-01-13T20:30:15.243Z,9.14
2023-01-13T20:34:19.654Z,9.20
2023-01-13T20:38:22.883Z,9.27
2023-01-13T20:42:39.904Z,9.34
2023-01-13T20:46:44.877Z,9.37
2023-01-13T20:50:53.478Z,9.37
2023-01-13T20:54:56.609Z,9.32
2023-01-13T20:59:01.423Z,9.27
2023-01-13T21:03:04.344Z,9.17
2023-01-13T21:07:08.376Z,9.11
2023-01-13T21:11:15.185Z,9.08
2023-01-13T21:15:22.128Z,9.05
2023-01-13T21:19:25.306Z,8.98
2023-01-13T21:23:28.292Z,8.92
2023-01-13T21:27:31.875Z,8.88
2023-01-13T21:31:36.399Z,8.87
2023-01-13T21:35:40.436Z,8.84
2023-01-13T21:39:44.336Z,8.83
2023-01-13T21:44:04.751Z,8.80
2023-01-13T21:48:09.700Z,8.77
2023-01-13T21:52:13.545Z,8.72
2023-01-13T21:56:16.816Z,8.67
2023-01-13T22:00:21.484Z,8.59
2023-01-13T22:04:25.970Z,8.49
2023-01-13T22:08:29.323Z,8.37
2023-01-13T22:12:32.841Z,8.26
2023-01-13T22:16:39.425Z,8.13
2023-01-13T22:20:43.945Z,8.06
2023-01-13T22:24:49.761Z,7.98
2023-01-13T22:28:53.107Z,7.90
2023-01-13T22:32:56.221Z,7.79
2023-01-13T22:37:01.317Z,7.64
2023-01-13T22:41:07.715Z,7.47
2023-01-13T22:45:13.149Z,7.30
2023-01-13T22:49:17.466Z,7.15
2023-01-13T22:53:22.707Z,7.01
2023-01-13T22:57:27.353Z,6.90
2023-01-13T23:01:33.182Z,6.81
2023-01-13T23:05:36.283Z,6.68
2023-01-13T23:09:40.882Z,6.60
2023-01-13T23:13:44.935Z,6.58
2023-01-13T23:17:50.282Z,6.67
2023-01-13T23:21:53.872Z,6.84
2023-01-13T23:25:58.296Z,7.07
2023-01-13T23:30:01.453Z,7.30
2023-01-13T23:34:04.646Z,7.53
2023-01-13T23:38:07.616Z,7.78
2023-01-13T23:42:12.120Z,8.02
2023-01-13T23:46:16.975Z,8.23
2023-01-13T23:50:20.193Z,8.39
2023-01-13T23:54:23.291Z,8.58
2023-01-13T23:58:27.675Z,8.69
